^^
B2 Weather Station Historical Data
Daily Summary for June 26, 2019 Units:  English    Metric   Both
Daily Weekly Monthly Yearly Custom
  High: Low: Average:
Temperature: 90.7 °F 67.2 °F 78.3 °F
Dew Point: 74.4 °F 60.4 °F 66.6 °F
Humidity: 94% 49% 69%
Wind Speed: 20.7mph 0mph 5.1mph
Wind Gust: 15.8mph - -
Wind- - SW
Pressure: 30.09 in 29.92 in -
Precipitation: 0.13 in    
Historical Graphs
 
 
Tabular Data for June 26, 2019
Time Temperature Dew Point Pressure Wind Wind Speed Wind Gust Humidity Rainfall Rate (Hourly) solar
00:04 75.3 °F 64.8 °F 29.94 in WSW 11.5 mph 7.5 mph 70% 0 in 0.00 W/m2
00:09 74.9 °F 64.5 °F 29.93 in SW 11.5 mph 8.5 mph 70% 0 in 0.00 W/m2
00:14 74.6 °F 64.2 °F 29.94 in West 11.5 mph 3.2 mph 70% 0 in 0.00 W/m2
00:19 74.1 °F 64.1 °F 29.94 in SW 11 mph 8.2 mph 71% 0 in 0.00 W/m2
00:24 73.3 °F 62.9 °F 29.93 in WSW 13.8 mph 8.2 mph 70% 0 in 0.00 W/m2
00:29 72.6 °F 62.3 °F 29.94 in WSW 11.5 mph 8.4 mph 70% 0 in 0.00 W/m2
00:34 72.2 °F 61.9 °F 29.94 in SSW 13.8 mph 8.6 mph 70% 0 in 0.00 W/m2
00:39 71.8 °F 61.9 °F 29.94 in SW 12 mph 8.1 mph 71% 0 in 0.00 W/m2
00:44 71.5 °F 61.6 °F 29.94 in WSW 11.5 mph 10.8 mph 71% 0 in 0.00 W/m2
00:49 71.3 °F 61.4 °F 29.94 in West 11.5 mph 5.8 mph 71% 0 in 0.00 W/m2
00:54 71.2 °F 61.3 °F 29.94 in SW 9.2 mph 5 mph 71% 0 in 0.00 W/m2
00:59 71.1 °F 61.6 °F 29.94 in WSW 6 mph 4.1 mph 72% 0 in 0.00 W/m2
01:04 71 °F 61.5 °F 29.93 in WSW 9.2 mph 4.6 mph 72% 0 in 0.00 W/m2
01:09 71.1 °F 61.6 °F 29.93 in West 10 mph 6.2 mph 72% 0 in 0.00 W/m2
01:14 71.1 °F 61.2 °F 29.93 in WSW 7 mph 5.1 mph 71% 0 in 0.00 W/m2
01:19 71.2 °F 61.3 °F 29.93 in WSW 6.9 mph 3.8 mph 71% 0 in 0.00 W/m2
01:24 71.2 °F 61.3 °F 29.93 in SW 6 mph 4 mph 71% 0 in 0.00 W/m2
01:29 71.2 °F 61.3 °F 29.93 in WSW 5.8 mph 4.2 mph 71% 0 in 0.00 W/m2
01:34 71.1 °F 61.2 °F 29.93 in WSW 3.5 mph 0.9 mph 71% 0 in 0.00 W/m2
01:39 71 °F 61.1 °F 29.92 in WSW 3.5 mph 0.6 mph 71% 0 in 0.00 W/m2
01:44 71 °F 61.1 °F 29.92 in WSW 3.5 mph 0.2 mph 71% 0 in 0.00 W/m2
01:49 70.8 °F 60.9 °F 29.93 in WSW 2.3 mph 2.1 mph 71% 0 in 0.00 W/m2
01:54 70.6 °F 60.7 °F 29.93 in WSW 3.5 mph 1.4 mph 71% 0 in 0.00 W/m2
01:59 70.4 °F 60.9 °F 29.93 in Calm     72% 0 in 0.00 W/m2
02:04 70.2 °F 60.7 °F 29.93 in West 2.3 mph 0.8 mph 72% 0 in 0.00 W/m2
02:09 70 °F 60.6 °F 29.94 in West 2 mph 1.3 mph 72% 0 in 0.00 W/m2
02:14 69.8 °F 60.8 °F 29.94 in WSW 3.5 mph 1.5 mph 73% 0 in 0.00 W/m2
02:19 69.8 °F 60.8 °F 29.94 in West 2.3 mph 1.2 mph 73% 0 in 0.00 W/m2
02:24 69.9 °F 60.5 °F 29.95 in West 3.5 mph 3.4 mph 72% 0 in 0.00 W/m2
02:29 69.9 °F 60.5 °F 29.95 in WSW 5 mph 3.3 mph 72% 0 in 0.00 W/m2
02:34 70 °F 60.6 °F 29.95 in WNW 3.5 mph 2.9 mph 72% 0 in 0.00 W/m2
02:39 70.1 °F 60.7 °F 29.95 in West 6.9 mph 2.2 mph 72% 0 in 0.00 W/m2
02:44 70.2 °F 60.7 °F 29.95 in WNW 4.6 mph 3.2 mph 72% 0 in 0.00 W/m2
02:49 70.4 °F 60.5 °F 29.95 in West 4.6 mph 2 mph 71% 0 in 0.00 W/m2
02:54 70.4 °F 60.5 °F 29.95 in West 5 mph 4.6 mph 71% 0 in 0.00 W/m2
02:59 70.5 °F 60.6 °F 29.95 in West 8.1 mph 3.5 mph 71% 0 in 0.00 W/m2
03:04 70.4 °F 60.9 °F 29.95 in WNW 5.8 mph 3.2 mph 72% 0 in 0.00 W/m2
03:09 70.4 °F 60.9 °F 29.95 in West 4.6 mph 4 mph 72% 0 in 0.00 W/m2
03:14 70.3 °F 61.2 °F 29.96 in West 6.9 mph 3.7 mph 73% 0 in 0.00 W/m2
03:19 70.2 °F 61.1 °F 29.96 in SW 5.8 mph 2.5 mph 73% 0 in 0.00 W/m2
03:24 70 °F 60.9 °F 29.96 in West 5.8 mph 2.8 mph 73% 0 in 0.00 W/m2
03:29 69.8 °F 61.1 °F 29.96 in WSW 6.9 mph 3.7 mph 74% 0 in 0.00 W/m2
03:34 69.6 °F 60.9 °F 29.96 in WSW 6.9 mph 3.1 mph 74% 0 in 0.00 W/m2
03:40 69.4 °F 60.8 °F 29.96 in West 3.5 mph 1.7 mph 74% 0 in 0.00 W/m2
03:44 69.1 °F 60.5 °F 29.96 in WSW 8.1 mph 2.5 mph 74% 0 in 0.00 W/m2
03:49 69 °F 60.7 °F 29.96 in West 3.5 mph 2.7 mph 75% 0 in 0.00 W/m2
03:54 68.9 °F 60.6 °F 29.97 in WSW 11.5 mph 3.2 mph 75% 0 in 0.00 W/m2
03:59 68.8 °F 60.6 °F 29.97 in WSW 11.5 mph 4 mph 75% 0 in 0.00 W/m2
04:04 68.8 °F 60.6 °F 29.97 in WSW 8.1 mph 3.5 mph 75% 0 in 0.00 W/m2
04:09 68.8 °F 60.6 °F 29.96 in WSW 11.5 mph 4.1 mph 75% 0 in 0.00 W/m2
04:14 68.8 °F 60.6 °F 29.96 in SW 8.1 mph 6.3 mph 75% 0 in 0.00 W/m2
04:19 68.8 °F 60.6 °F 29.97 in West 9.2 mph 7.4 mph 75% 0 in 0.00 W/m2
04:24 68.9 °F 60.6 °F 29.97 in SW 8.1 mph 3.5 mph 75% 0 in 0.00 W/m2
04:29 68.7 °F 60.5 °F 29.97 in SW 8.1 mph 5 mph 75% 0 in 0.00 W/m2
04:34 68.6 °F 60.7 °F 29.97 in WSW 9.2 mph 3 mph 76% 0 in 0.00 W/m2
04:39 68.4 °F 60.9 °F 29.98 in West 9.2 mph 2.7 mph 77% 0 in 0.00 W/m2
04:44 68.2 °F 60.7 °F 29.98 in WSW 6.9 mph 3.4 mph 77% 0 in 0.00 W/m2
04:49 68.1 °F 60.6 °F 29.98 in WSW 4.6 mph 2.6 mph 77% 0 in 0.00 W/m2
04:54 67.9 °F 60.4 °F 29.98 in West 5.8 mph 2.7 mph 77% 0 in 0.00 W/m2
04:59 67.8 °F 60.7 °F 29.98 in West 5.8 mph 3.1 mph 78% 0 in 0.00 W/m2
05:04 67.8 °F 60.7 °F 29.98 in WSW 8.1 mph 2.8 mph 78% 0 in 0.00 W/m2
05:09 67.8 °F 60.7 °F 29.98 in WSW 5.8 mph 2.7 mph 78% 0 in 0.00 W/m2
05:14 67.7 °F 61 °F 29.98 in WSW 4.6 mph 1.9 mph 79% 0 in 0.00 W/m2
05:19 67.6 °F 60.9 °F 29.99 in WSW 4.6 mph 3.7 mph 79% 0 in 0.00 W/m2
05:24 67.5 °F 60.8 °F 29.99 in WSW 6.9 mph 2.6 mph 79% 0 in 0.00 W/m2
05:29 67.5 °F 60.8 °F 29.98 in WSW 6 mph 3 mph 79% 0 in 7.00 W/m2
05:34 67.4 °F 61 °F 29.98 in WSW 5.8 mph 1 mph 80% 0 in 11.00 W/m2
05:39 67.4 °F 61 °F 29.98 in WSW 3.5 mph 1.3 mph 80% 0 in 12.00 W/m2
05:44 67.4 °F 61 °F 29.99 in West 3.5 mph 1.8 mph 80% 0 in 18.00 W/m2
05:49 67.3 °F 60.9 °F 29.99 in WSW 4.6 mph 3.3 mph 80% 0 in 21.00 W/m2
05:54 67.4 °F 61 °F 29.99 in WSW 4.6 mph 3.2 mph 80% 0 in 23.00 W/m2
05:59 67.4 °F 61 °F 29.99 in SW 6.9 mph 3.6 mph 80% 0 in 28.00 W/m2
06:04 67.5 °F 61.1 °F 30.00 in West 3.5 mph 0.8 mph 80% 0 in 33.00 W/m2
06:09 67.5 °F 61.5 °F 30.00 in WSW 6 mph 4.2 mph 81% 0 in 32.00 W/m2
06:14 67.6 °F 61.6 °F 30.00 in SW 4.6 mph 2.9 mph 81% 0 in 35.00 W/m2
06:19 67.7 °F 61.7 °F 30.01 in SW 4.6 mph 3.1 mph 81% 0 in 42.00 W/m2
06:24 67.6 °F 61.6 °F 30.00 in WSW 5.8 mph 4 mph 81% 0 in 58.00 W/m2
06:29 67.6 °F 61.6 °F 30.01 in WSW 5.8 mph 2.7 mph 81% 0 in 62.00 W/m2
06:34 67.6 °F 61.9 °F 30.01 in SW 4.6 mph 2 mph 82% 0 in 97.00 W/m2
06:39 67.6 °F 61.9 °F 30.02 in WSW 6.9 mph 2 mph 82% 0 in 91.00 W/m2
06:44 67.7 °F 62 °F 30.02 in SW 4.6 mph 2.4 mph 82% 0 in 95.00 W/m2
06:49 67.8 °F 62.1 °F 30.02 in SW 6.9 mph 3.6 mph 82% 0 in 90.00 W/m2
06:54 67.9 °F 62.2 °F 30.02 in WSW 5.8 mph 3.5 mph 82% 0 in 118.00 W/m2
06:59 68.2 °F 62.5 °F 30.02 in WSW 5.8 mph 2.7 mph 82% 0 in 127.00 W/m2
07:04 68.5 °F 62.8 °F 30.02 in SW 5 mph 3.6 mph 82% 0 in 141.00 W/m2
07:09 68.7 °F 62.6 °F 30.02 in WSW 3.5 mph 3 mph 81% 0 in 123.00 W/m2
07:15 68.9 °F 62.8 °F 30.03 in SW 2.3 mph 0.8 mph 81% 0 in 153.00 W/m2
07:19 69.2 °F 63.1 °F 30.03 in WSW 4 mph 0.6 mph 81% 0 in 258.00 W/m2
07:24 69.6 °F 63.9 °F 30.03 in Calm   0.4 mph 82% 0 in 234.00 W/m2
07:29 70.2 °F 63.7 °F 30.03 in SSW 4 mph 1 mph 80% 0 in 193.00 W/m2
07:34 70.5 °F 63.7 °F 30.04 in WSW 5 mph 2.8 mph 79% 0 in 202.00 W/m2
07:39 70.6 °F 63.8 °F 30.03 in WSW 4.6 mph 3.3 mph 79% 0 in 251.00 W/m2
07:44 70.9 °F 64.1 °F 30.02 in Calm     79% 0 in 283.00 W/m2
07:49 71.4 °F 64.5 °F 30.02 in Calm     79% 0 in 332.00 W/m2
07:54 71.7 °F 64.5 °F 30.02 in Calm     78% 0 in 380.00 W/m2
07:59 72.2 °F 65 °F 30.02 in Calm     78% 0 in 388.00 W/m2
08:04 72.6 °F 65 °F 30.02 in Calm     77% 0 in 408.00 W/m2
08:09 72.9 °F 65.3 °F 30.02 in Calm     77% 0 in 420.00 W/m2
08:14 73.2 °F 65.2 °F 30.03 in SW 5.8 mph 3.4 mph 76% 0 in 413.00 W/m2
08:20 73.5 °F 65.5 °F 30.03 in Calm     76% 0 in 436.00 W/m2
08:24 73.7 °F 64.9 °F 30.04 in WSW 2.3 mph 0.9 mph 74% 0 in 359.00 W/m2
08:29 73.9 °F 65.1 °F 30.04 in SW 5 mph 1 mph 74% 0 in 394.00 W/m2
08:34 74.1 °F 65.7 °F 30.04 in Calm     75% 0 in 376.00 W/m2
08:39 74.4 °F 66.3 °F 30.03 in Calm     76% 0 in 490.00 W/m2
08:44 75 °F 66.5 °F 30.04 in Calm   0.1 mph 75% 0 in 469.00 W/m2
08:49 75.4 °F 66.1 °F 30.04 in SW 3.5 mph 2.7 mph 73% 0 in 431.00 W/m2
08:54 75.6 °F 65.9 °F 30.04 in SW 3.5 mph 2.8 mph 72% 0 in 459.00 W/m2
08:59 75.7 °F 66.4 °F 30.05 in SW 3.5 mph 0.5 mph 73% 0 in 461.00 W/m2
09:04 75.8 °F 66.1 °F 30.05 in WSW 4.6 mph 1.4 mph 72% 0 in 473.00 W/m2
09:09 76 °F 65.9 °F 30.05 in WSW 3.5 mph 1 mph 71% 0 in 527.00 W/m2
09:14 76.4 °F 66.7 °F 30.05 in WSW 7 mph 2.6 mph 72% 0 in 566.00 W/m2
09:19 76.6 °F 66.5 °F 30.05 in SW 3.5 mph   71% 0 in 608.00 W/m2
09:24 76.9 °F 66.8 °F 30.05 in West 1.2 mph   71% 0 in 615.00 W/m2
09:30 77.1 °F 67 °F 30.05 in West 2.3 mph 0.2 mph 71% 0 in 589.00 W/m2
09:34 77 °F 66.5 °F 30.05 in Calm     70% 0 in 575.00 W/m2
09:39 77.3 °F 68 °F 30.05 in SSW 1.2 mph 0.9 mph 73% 0 in 601.00 W/m2
09:44 77.9 °F 67.7 °F 30.04 in SSW 4.6 mph   71% 0 in 571.00 W/m2
09:49 78.4 °F 68.6 °F 30.05 in Calm     72% 0 in 533.00 W/m2
09:54 78.9 °F 67.9 °F 30.05 in Calm     69% 0 in 533.00 W/m2
09:59 79.2 °F 67.7 °F 30.05 in WSW 2.3 mph   68% 0 in 570.00 W/m2
10:04 79.2 °F 68.1 °F 30.05 in Calm     69% 0 in 566.00 W/m2
10:09 79.3 °F 68.2 °F 30.05 in Calm     69% 0 in 605.00 W/m2
10:14 79.8 °F 69.6 °F 30.05 in Calm   0.4 mph 71% 0 in 606.00 W/m2
10:19 80.3 °F 68.3 °F 30.05 in Calm     67% 0 in 629.00 W/m2
10:24 80.4 °F 68.4 °F 30.05 in South 1.2 mph   67% 0 in 680.00 W/m2
10:29 80.9 °F 69.8 °F 30.05 in Calm     69% 0 in 703.00 W/m2
10:34 81.3 °F 69.7 °F 30.05 in Calm     68% 0 in 654.00 W/m2
10:39 81.6 °F 68.2 °F 30.05 in Calm     64% 0 in 728.00 W/m2
10:44 81.9 °F 69.9 °F 30.05 in Calm     67% 0 in 786.00 W/m2
10:49 82.2 °F 68.3 °F 30.05 in WSW 4.6 mph 2.5 mph 63% 0 in 800.00 W/m2
10:54 82.6 °F 69.6 °F 30.05 in SSE 3.5 mph 0.6 mph 65% 0 in 777.00 W/m2
10:59 82.9 °F 69 °F 30.04 in Calm     63% 0 in 807.00 W/m2
11:04 83.2 °F 69.8 °F 30.04 in SSW 2.3 mph 0.1 mph 64% 0 in 826.00 W/m2
11:09 83.3 °F 67 °F 30.04 in Calm     58% 0 in 844.00 W/m2
11:14 83.4 °F 69 °F 30.04 in WSW 1 mph 0.1 mph 62% 0 in 819.00 W/m2
11:19 83.4 °F 67.6 °F 30.04 in WNW 5.8 mph 1 mph 59% 0 in 823.00 W/m2
11:24 83.5 °F 67.7 °F 30.04 in WSW 4.6 mph 0.9 mph 59% 0 in 842.00 W/m2
11:29 83.6 °F 68.2 °F 30.05 in SSW 2.3 mph   60% 0 in 742.00 W/m2
11:34 83.6 °F 68.2 °F 30.05 in South 3.5 mph 0.5 mph 60% 0 in 800.00 W/m2
11:39 83.9 °F 68.5 °F 30.04 in SSW 1.2 mph   60% 0 in 784.00 W/m2
11:44 84.1 °F 68.2 °F 30.04 in WSW 6.9 mph   59% 0 in 856.00 W/m2
11:49 84.4 °F 69.5 °F 30.04 in SSW 6.9 mph 1.2 mph 61% 0 in 860.00 W/m2
11:54 84.6 °F 68.2 °F 30.04 in WSW 5.8 mph 4.3 mph 58% 0 in 758.00 W/m2
11:59 84.4 °F 68.5 °F 30.04 in North 8.1 mph 3.2 mph 59% 0 in 740.00 W/m2
12:04 84.5 °F 68.6 °F 30.04 in Calm   0.3 mph 59% 0 in 912.00 W/m2
12:09 84.5 °F 69.6 °F 30.04 in SSE 3.5 mph   61% 0 in 923.00 W/m2
12:14 84.9 °F 70.4 °F 30.04 in SE 6 mph 4.4 mph 62% 0 in 773.00 W/m2
12:19 85 °F 71.9 °F 30.04 in South 7 mph 2.1 mph 65% 0 in 872.00 W/m2
12:24 85.2 °F 70.2 °F 30.03 in SSE 5.8 mph 2.5 mph 61% 0 in 856.00 W/m2
12:29 85.2 °F 69.7 °F 30.03 in SSW 6.9 mph 1.4 mph 60% 0 in 958.00 W/m2
12:34 85.5 °F 70.5 °F 30.03 in Calm     61% 0 in 865.00 W/m2
12:39 85.9 °F 71.8 °F 30.03 in Calm     63% 0 in 900.00 W/m2
12:44 86.1 °F 70.6 °F 30.03 in SSE 5 mph 4.2 mph 60% 0 in 916.00 W/m2
12:49 86.1 °F 71.6 °F 30.03 in SSE 5.8 mph 4.3 mph 62% 0 in 854.00 W/m2
12:54 85.8 °F 69.3 °F 30.02 in South 4.6 mph 0.3 mph 58% 0 in 867.00 W/m2
12:59 85.9 °F 70.4 °F 30.02 in SW 6 mph 2.3 mph 60% 0 in 751.00 W/m2
13:04 85.6 °F 68.6 °F 30.02 in WSW 2.3 mph 1.9 mph 57% 0 in 679.00 W/m2
13:10 85.7 °F 69.7 °F 30.02 in SW 3.5 mph 2.7 mph 59% 0 in 742.00 W/m2
13:14 86 °F 71 °F 30.02 in SSE 4.6 mph 2.1 mph 61% 0 in 742.00 W/m2
13:19 86.1 °F 70.6 °F 30.02 in South 1.2 mph   60% 0 in 738.00 W/m2
13:24 86.2 °F 71.2 °F 30.02 in SE 6 mph 3.7 mph 61% 0 in 649.00 W/m2
13:29 85.9 °F 71.8 °F 30.02 in Calm     63% 0 in 522.00 W/m2
13:35 86 °F 71 °F 30.02 in South 5.8 mph 1.1 mph 61% 0 in 659.00 W/m2
13:39 86.1 °F 71.6 °F 30.01 in SSE 9.2 mph 2.8 mph 62% 0 in 721.00 W/m2
13:44 86.1 °F 71.6 °F 30.01 in SSE 6.9 mph 4.1 mph 62% 0 in 759.00 W/m2
13:49 86.3 °F 72.2 °F 30.01 in South 12.7 mph 2.8 mph 63% 0 in 728.00 W/m2
13:54 86.5 °F 71.5 °F 30.01 in SSE 3.5 mph 2 mph 61% 0 in 638.00 W/m2
13:59 86.6 °F 71.1 °F 30.01 in South 4.6 mph 1.2 mph 60% 0 in 719.00 W/m2
14:05 86.8 °F 70.2 °F 30.01 in SSW 4.6 mph 2.4 mph 58% 0 in 765.00 W/m2
14:09 87 °F 72.4 °F 30.01 in SSE 6 mph 4 mph 62% 0 in 942.00 W/m2
14:15 87.5 °F 73.3 °F 30.01 in SSE 5.8 mph 2.9 mph 63% 0 in 940.00 W/m2
14:19 87.8 °F 72.7 °F 30.01 in SSE 3 mph 0.9 mph 61% 0 in 759.00 W/m2
14:24 87.8 °F 71.7 °F 30.01 in South 4 mph 1.5 mph 59% 0 in 635.00 W/m2
14:29 87.5 °F 70.9 °F 30.01 in SSE 5.8 mph 2.5 mph 58% 0 in 717.00 W/m2
14:34 87.3 °F 72.2 °F 30.01 in South 5 mph 2.1 mph 61% 0 in 932.00 W/m2
14:39 87.6 °F 74.4 °F 30.01 in SSE 8.1 mph 0.8 mph 65% 0 in 861.00 W/m2
14:45 87.7 °F 71.6 °F 30.00 in South 8.1 mph 3.5 mph 59% 0 in 837.00 W/m2
14:49 87.7 °F 72.6 °F 30.00 in SSE 4.6 mph 2.6 mph 61% 0 in 819.00 W/m2
14:55 87.9 °F 72.8 °F 30.00 in SSE 5.8 mph 2.5 mph 61% 0 in 749.00 W/m2
14:59 88.1 °F 72 °F 30.00 in South 6 mph 2.6 mph 59% 0 in 803.00 W/m2
15:04 88.2 °F 70 °F 30.00 in SSW 5.8 mph 2.9 mph 55% 0 in 846.00 W/m2
15:09 88.4 °F 71.7 °F 30.00 in SE 3.5 mph 0.6 mph 58% 0 in 814.00 W/m2
15:14 88.7 °F 71.5 °F 30.00 in South 6.9 mph 3.2 mph 57% 0 in 807.00 W/m2
15:19 88.8 °F 70.5 °F 30.00 in WSW 6.9 mph 3.5 mph 55% 0 in 807.00 W/m2
15:24 88.9 °F 72.2 °F 30.00 in SE 3.5 mph 1.1 mph 58% 0 in 846.00 W/m2
15:29 89 °F 71.3 °F 29.99 in South 5.8 mph 2.9 mph 56% 0 in 809.00 W/m2
15:34 89 °F 71.8 °F 29.99 in SE 3.5 mph 0.3 mph 57% 0 in 814.00 W/m2
15:39 89.1 °F 71.9 °F 29.99 in South 2.3 mph   57% 0 in 798.00 W/m2
15:44 89 °F 71.8 °F 29.99 in SSW 5 mph 0.8 mph 57% 0 in 721.00 W/m2
15:49 89.2 °F 70.4 °F 29.99 in SW 2.3 mph 1 mph 54% 0 in 643.00 W/m2
15:54 89.6 °F 71.8 °F 29.99 in SSW 4.6 mph 1 mph 56% 0 in 568.00 W/m2
15:59 90 °F 72.7 °F 29.99 in SW 3.5 mph 0.3 mph 57% 0 in 656.00 W/m2
16:04 90.2 °F 70.8 °F 29.99 in South 3 mph 0.4 mph 53% 0 in 459.00 W/m2
16:09 89.5 °F 69.5 °F 29.99 in South 3.5 mph 1.5 mph 52% 0 in 274.00 W/m2
16:14 88.9 °F 71.2 °F 29.99 in South 3.5 mph 1.1 mph 56% 0 in 339.00 W/m2
16:19 88.3 °F 70.1 °F 29.99 in SSW 4.6 mph 3.3 mph 55% 0 in 352.00 W/m2
16:25 87.8 °F 69.6 °F 29.99 in SSW 6.9 mph 3.7 mph 55% 0 in 410.00 W/m2
16:29 87.9 °F 71.3 °F 29.99 in Calm     58% 0 in 786.00 W/m2
16:34 88.6 °F 69.8 °F 30.00 in Calm     54% 0 in 779.00 W/m2
16:39 89.1 °F 71.4 °F 29.99 in SSE 3.5 mph 1.9 mph 56% 0 in 710.00 W/m2
16:44 89.7 °F 70.8 °F 29.99 in SSW 6.9 mph 3.1 mph 54% 0 in 682.00 W/m2
16:49 90.1 °F 69.5 °F 29.98 in SSW 6.9 mph 2.5 mph 51% 0 in 624.00 W/m2
16:54 90.3 °F 71.4 °F 29.98 in North 3.5 mph 1.6 mph 54% 0 in 555.00 W/m2
16:59 90.5 °F 71 °F 29.98 in SSW 3.5 mph 0.5 mph 53% 0 in 603.00 W/m2
17:05 90.5 °F 70.5 °F 29.98 in SW 2.3 mph 1.5 mph 52% 0 in 489.00 W/m2
17:09 90.7 °F 72.8 °F 29.98 in South 5 mph 2.3 mph 56% 0 in 504.00 W/m2
17:15 90.5 °F 71.6 °F 29.97 in South 6.9 mph 4.3 mph 54% 0 in 464.00 W/m2
17:19 90.1 °F 70.1 °F 29.98 in South 4.6 mph 3.1 mph 52% 0 in 464.00 W/m2
17:24 90 °F 69.4 °F 29.98 in SSW 6.9 mph 4.2 mph 51% 0 in 468.00 W/m2
17:29 90.1 °F 70.1 °F 29.97 in North 4 mph 2.4 mph 52% 0 in 434.00 W/m2
17:34 90.2 °F 69 °F 29.97 in SSW 8.1 mph 4.7 mph 50% 0 in 396.00 W/m2
17:39 90.1 °F 69 °F 29.97 in WNW 8.1 mph 2.3 mph 50% 0 in 406.00 W/m2
17:44 90.3 °F 69.7 °F 29.97 in South 6 mph 3.6 mph 51% 0 in 403.00 W/m2
17:49 90.2 °F 69 °F 29.97 in WSW 4.6 mph 3 mph 50% 0 in 207.00 W/m2
17:54 90.1 °F 69 °F 29.97 in SSW 4.6 mph 3 mph 50% 0 in 311.00 W/m2
17:59 89.9 °F 68.2 °F 29.97 in North 5.8 mph 3.8 mph 49% 0 in 311.00 W/m2
18:04 89.8 °F 68.7 °F 29.97 in WSW 5 mph 3 mph 50% 0 in 281.00 W/m2
18:09 89.7 °F 69.2 °F 29.97 in South 3.5 mph 1.2 mph 51% 0 in 236.00 W/m2
18:14 89.7 °F 69.7 °F 29.97 in SW 3.5 mph 2.5 mph 52% 0 in 229.00 W/m2
18:19 89.6 °F 69.1 °F 29.96 in South 5.8 mph 3.1 mph 51% 0 in 220.00 W/m2
18:24 89.3 °F 69.9 °F 29.96 in SSW 3.5 mph 1.5 mph 53% 0 in 179.00 W/m2
18:29 89.1 °F 69.2 °F 29.96 in West 1 mph 0.2 mph 52% 0 in 118.00 W/m2
18:34 88.9 °F 69 °F 29.96 in SW 4.6 mph 1.4 mph 52% 0 in 105.00 W/m2
18:39 88.6 °F 69.3 °F 29.96 in SSW 2.3 mph 0.6 mph 53% 0 in 148.00 W/m2
18:44 88.5 °F 69.7 °F 29.96 in WSW 2 mph 1.2 mph 54% 0 in 98.00 W/m2
18:49 88.4 °F 69.6 °F 29.97 in West 3.5 mph 0.8 mph 54% 0 in 86.00 W/m2
18:54 88.1 °F 69.4 °F 29.97 in WSW 2.3 mph 1.1 mph 54% 0 in 79.00 W/m2
18:59 87.9 °F 69.2 °F 29.97 in WSW 1.2 mph 0.3 mph 54% 0 in 109.00 W/m2
19:04 87.8 °F 69.6 °F 29.97 in WSW 3.5 mph 0.2 mph 55% 0 in 121.00 W/m2
19:09 87.9 °F 70.2 °F 29.97 in SW 3.5 mph 0.4 mph 56% 0 in 116.00 W/m2
19:14 87.9 °F 69.7 °F 29.97 in Calm     55% 0 in 84.00 W/m2
19:19 87.8 °F 70.1 °F 29.98 in SW 2.3 mph 0.1 mph 56% 0 in 76.00 W/m2
19:24 87.7 °F 70.1 °F 29.98 in SSW 1.2 mph 0.5 mph 56% 0 in 67.00 W/m2
19:29 87.4 °F 69.8 °F 29.98 in Calm     56% 0 in 62.00 W/m2
19:34 87.2 °F 69.6 °F 29.98 in WSW 3.5 mph 0.1 mph 56% 0 in 46.00 W/m2
19:39 87 °F 70.9 °F 29.98 in Calm     59% 0 in 33.00 W/m2
19:44 86.5 °F 70 °F 29.98 in SSW 3.5 mph 0.6 mph 58% 0 in 21.00 W/m2
19:49 86.2 °F 69.7 °F 29.98 in Calm     58% 0 in 14.00 W/m2
19:54 85.9 °F 69.9 °F 29.99 in Calm     59% 0 in 12.00 W/m2
19:59 85.7 °F 70.2 °F 29.99 in Calm     60% 0 in 9.00 W/m2
20:04 85.2 °F 69.7 °F 30.00 in West 3.5 mph 0.9 mph 60% 0 in 5.00 W/m2
20:09 85.1 °F 69.7 °F 30.00 in SW 2.3 mph 1.8 mph 60% 0 in 5.00 W/m2
20:14 85.1 °F 70.1 °F 30.00 in SW 1.2 mph   61% 0 in 0.00 W/m2
20:19 84.9 °F 70.4 °F 30.00 in SW 2 mph   62% 0 in 0.00 W/m2
20:24 84.8 °F 70.3 °F 30.00 in SW 3.5 mph 0.6 mph 62% 0 in 0.00 W/m2
20:29 84.8 °F 69.9 °F 30.00 in North 4.6 mph 1 mph 61% 0 in 0.00 W/m2
20:34 84.8 °F 70.3 °F 30.00 in SSW 3.5 mph 1.1 mph 62% 0 in 0.00 W/m2
20:39 84.6 °F 70.6 °F 30.00 in SSW 4.6 mph 3.4 mph 63% 0 in 0.00 W/m2
20:44 84.3 °F 71.2 °F 30.00 in SSW 4.6 mph 3.7 mph 65% 0 in 0.00 W/m2
20:49 84 °F 71.4 °F 30.00 in SSW 4.6 mph 3 mph 66% 0 in 0.00 W/m2
20:54 83.7 °F 71.6 °F 30.00 in South 4.6 mph 2.9 mph 67% 0 in 0.00 W/m2
20:59 83.3 °F 71.6 °F 30.01 in SSE 4.6 mph 3.3 mph 68% 0 in 0.00 W/m2
21:04 81.8 °F 70.6 °F 30.01 in SSE 2.3 mph 0.1 mph 69% 0 in 0.00 W/m2
21:09 80.6 °F 69.9 °F 30.02 in Calm     70% 0 in 0.00 W/m2
21:14 79.9 °F 69.7 °F 30.01 in SSE 4 mph 1.8 mph 71% 0 in 0.00 W/m2
21:19 79.4 °F 69.6 °F 30.01 in Calm     72% 0 in 0.00 W/m2
21:24 79.6 °F 71 °F 30.02 in WSW 9.2 mph 3.9 mph 75% 0 in 0.00 W/m2
21:29 81 °F 71.1 °F 30.02 in North 7 mph 5.4 mph 72% 0 in 0.00 W/m2
21:34 81.7 °F 71.4 °F 30.02 in West 8.1 mph 2.4 mph 71% 0 in 0.00 W/m2
21:39 82 °F 71.2 °F 30.04 in NNW 9 mph 6.4 mph 70% 0 in 0.00 W/m2
21:44 79.6 °F 67.2 °F 30.05 in NNW 20.7 mph 14.2 mph 66% 0 in 0.00 W/m2
21:49 76.3 °F 67 °F 30.05 in NNE 19.6 mph 15.8 mph 73% 0 in 0.00 W/m2
21:54 74.3 °F 66.6 °F 30.06 in NNE 18.4 mph 12 mph 77% 0 in 0.00 W/m2
21:59 73.2 °F 67 °F 30.07 in NE 16.1 mph 9.4 mph 81% 0 in 0.00 W/m2
22:04 72.6 °F 67.1 °F 30.07 in North 11.5 mph 5.4 mph 83% 0 in 0.00 W/m2
22:09 72 °F 66.9 °F 30.07 in NNE 10.4 mph 5.1 mph 84% 0 in 0.00 W/m2
22:14 71.5 °F 67.1 °F 30.07 in ENE 12.7 mph 8 mph 86% 0 in 0.00 W/m2
22:19 71 °F 66.9 °F 30.07 in NNE 9 mph 5.1 mph 87% 0 in 0.00 W/m2
22:24 70.3 °F 66.6 °F 30.07 in ENE 9.2 mph 5.6 mph 88% 0.01 in 0.00 W/m2
22:29 69.5 °F 66.1 °F 30.07 in NNE 10.4 mph 5.7 mph 89% 0.02 in 0.00 W/m2
22:34 69.1 °F 66.4 °F 30.07 in NE 11.5 mph 9.8 mph 91% 0.07 in 0.00 W/m2
22:39 68.7 °F 66.3 °F 30.06 in ENE 16.1 mph 8.4 mph 92% 0.11 in 0.00 W/m2
22:44 68.5 °F 66.1 °F 30.07 in NE 19.6 mph 8.8 mph 92% 0.11 in 0.00 W/m2
22:49 68.2 °F 65.8 °F 30.06 in East 18.4 mph 9.9 mph 92% 0.12 in 0.00 W/m2
22:54 68.1 °F 66 °F 30.06 in ENE 9.2 mph 7 mph 93% 0.12 in 0.00 W/m2
22:59 68.4 °F 66.3 °F 30.07 in East 2.3 mph 2.3 mph 93% 0.12 in 0.00 W/m2
23:04 68.8 °F 67 °F 30.08 in SSE 7 mph 0.5 mph 94% 0.12 in 0.00 W/m2
23:09 68.8 °F 66.7 °F 30.09 in SE 11 mph 4.8 mph 93% 0.12 in 0.00 W/m2
23:14 68.5 °F 66.4 °F 30.09 in ESE 13.8 mph 7.1 mph 93% 0.12 in 0.00 W/m2
23:19 68 °F 65.9 °F 30.08 in ESE 9.2 mph 3.4 mph 93% 0.12 in 0.00 W/m2
23:24 67.5 °F 65.4 °F 30.08 in ESE 8.1 mph 4.3 mph 93% 0.11 in 0.00 W/m2
23:29 67.2 °F 65.1 °F 30.08 in ESE 5.8 mph 1.6 mph 93% 0.1 in 0.00 W/m2
23:34 67.2 °F 65.1 °F 30.08 in SE 3.5 mph   93% 0.05 in 0.00 W/m2
23:39 67.3 °F 65.5 °F 30.09 in Calm     94% 0.02 in 0.00 W/m2
23:44 67.3 °F 65.5 °F 30.09 in Calm     94% 0.02 in 0.00 W/m2
23:49 67.5 °F 65.7 °F 30.08 in Calm     94% 0.01 in 0.00 W/m2
23:54 67.7 °F 65.9 °F 30.09 in SE 2.3 mph 0.7 mph 94% 0.01 in 0.00 W/m2
23:59 67.9 °F 66.1 °F 30.09 in ESE 3.5 mph   94% 0.01 in 0.00 W/m2
Bourbonnais, Illinois, USA
Compliments of Weather Underground - 4 mb